createdAt,value
2019-03-09T00:01:46.648Z,92.17
2019-03-09T00:04:14.301Z,92.38
2019-03-09T00:06:41.829Z,92.81
2019-03-09T00:09:09.580Z,92.12
2019-03-09T00:11:37.685Z,92.23
2019-03-09T00:14:05.344Z,91.69
2019-03-09T00:16:33.355Z,91.75
2019-03-09T00:19:01.052Z,91.94
2019-03-09T00:21:28.742Z,92.04
2019-03-09T00:24:15.911Z,91.60
2019-03-09T00:26:51.789Z,91.66
2019-03-09T00:29:23.465Z,91.53
2019-03-09T00:31:54.572Z,91.85
2019-03-09T00:34:23.194Z,92.08
2019-03-09T00:36:50.800Z,92.36
2019-03-09T00:39:18.419Z,92.13
2019-03-09T00:41:45.987Z,93.69
2019-03-09T00:44:13.591Z,95.20
2019-03-09T00:46:41.202Z,95.42
2019-03-09T00:49:08.809Z,95.79
2019-03-09T00:51:36.369Z,95.77
2019-03-09T00:54:04.174Z,95.50
2019-03-09T00:56:31.738Z,95.13
2019-03-09T00:58:59.345Z,94.66
2019-03-09T01:01:26.897Z,93.75
2019-03-09T01:03:54.544Z,93.48
2019-03-09T01:06:22.080Z,90.49
2019-03-09T01:08:49.728Z,89.50
2019-03-09T01:11:17.278Z,91.60
2019-03-09T01:13:44.860Z,92.14
2019-03-09T01:16:12.389Z,93.39
2019-03-09T01:18:39.937Z,93.04
2019-03-09T01:21:07.510Z,91.92
2019-03-09T01:23:35.079Z,92.02
2019-03-09T01:26:02.656Z,93.02
2019-03-09T01:28:30.232Z,92.97
2019-03-09T01:30:58.906Z,93.37
2019-03-09T01:33:26.453Z,93.67
2019-03-09T01:35:54.168Z,93.64
2019-03-09T01:38:22.250Z,93.46
2019-03-09T01:40:49.868Z,93.27
2019-03-09T01:43:17.406Z,92.59
2019-03-09T01:45:45.009Z,92.32
2019-03-09T01:48:12.566Z,92.77
2019-03-09T01:50:40.145Z,93.15
2019-03-09T01:53:07.673Z,93.25
2019-03-09T01:55:35.298Z,92.50
2019-03-09T01:58:03.213Z,92.51
2019-03-09T02:00:30.879Z,93.14
2019-03-09T02:03:00.245Z,93.64
2019-03-09T02:05:27.829Z,93.94
2019-03-09T02:07:55.443Z,93.72
2019-03-09T02:10:23.052Z,94.15
2019-03-09T02:12:50.774Z,94.37
2019-03-09T02:15:18.471Z,94.92
2019-03-09T02:17:46.148Z,94.39
2019-03-09T02:20:13.903Z,93.66
2019-03-09T02:22:41.734Z,93.54
2019-03-09T02:25:09.914Z,93.19
2019-03-09T02:27:38.498Z,93.27
2019-03-09T02:30:06.363Z,93.33
2019-03-09T02:32:34.986Z,93.69
2019-03-09T02:35:04.853Z,93.42
2019-03-09T02:37:32.525Z,93.49
2019-03-09T02:40:03.473Z,93.17
2019-03-09T02:42:31.529Z,92.24
2019-03-09T02:44:59.181Z,92.14
2019-03-09T02:47:26.968Z,91.82
2019-03-09T02:49:54.593Z,91.86
2019-03-09T02:52:22.137Z,91.84
2019-03-09T02:54:49.753Z,91.96
2019-03-09T02:57:17.298Z,92.56
2019-03-09T02:59:44.874Z,92.85
2019-03-09T03:02:38.087Z,92.35
2019-03-09T03:05:06.130Z,92.27
2019-03-09T03:07:33.662Z,92.23
2019-03-09T03:10:01.359Z,92.13
2019-03-09T03:12:30.728Z,92.36
2019-03-09T03:14:58.507Z,92.39
2019-03-09T03:17:26.151Z,92.60
2019-03-09T03:19:53.805Z,92.82
2019-03-09T03:22:21.447Z,93.13
2019-03-09T03:24:49.033Z,92.90
2019-03-09T03:27:16.624Z,92.57
2019-03-09T03:29:44.150Z,92.70
2019-03-09T03:32:11.788Z,93.08
2019-03-09T03:34:39.349Z,92.98
2019-03-09T03:37:06.956Z,92.69
2019-03-09T03:39:34.477Z,93.20
2019-03-09T03:42:02.122Z,93.04
2019-03-09T03:44:29.629Z,92.85
2019-03-09T03:46:57.234Z,92.21
2019-03-09T03:49:25.322Z,92.20
2019-03-09T03:51:53.275Z,92.45
2019-03-09T03:54:21.845Z,92.49
2019-03-09T03:56:49.499Z,92.81
2019-03-09T03:59:17.105Z,92.59
2019-03-09T04:01:44.868Z,92.65
2019-03-09T04:04:12.431Z,92.82
2019-03-09T04:06:40.434Z,93.30
2019-03-09T04:09:08.081Z,93.87
2019-03-09T04:11:35.949Z,93.40
2019-03-09T04:14:04.788Z,93.29
2019-03-09T04:16:34.057Z,93.79
2019-03-09T04:19:01.737Z,93.73
2019-03-09T04:21:29.662Z,93.73
2019-03-09T04:23:57.393Z,94.00
2019-03-09T04:26:25.015Z,94.00
2019-03-09T04:28:52.708Z,93.72
2019-03-09T04:31:20.473Z,93.73
2019-03-09T04:33:48.101Z,93.42
2019-03-09T04:36:15.922Z,93.28
2019-03-09T04:38:43.661Z,93.03
2019-03-09T04:41:11.402Z,93.82
2019-03-09T04:43:39.212Z,94.01
2019-03-09T04:46:06.748Z,93.98
2019-03-09T04:48:34.322Z,94.15
2019-03-09T04:51:01.866Z,94.20
2019-03-09T04:53:29.471Z,94.23
2019-03-09T04:55:57.012Z,93.60
2019-03-09T04:58:24.605Z,92.87
2019-03-09T05:00:53.187Z,92.73
2019-03-09T05:03:21.679Z,93.19
2019-03-09T05:05:49.353Z,92.90
2019-03-09T05:08:28.516Z,92.95
2019-03-09T05:11:15.275Z,93.00
2019-03-09T05:14:10.449Z,92.71
2019-03-09T05:16:37.980Z,93.35
2019-03-09T05:19:07.253Z,93.67
2019-03-09T05:21:34.880Z,93.56
2019-03-09T05:24:02.488Z,93.45
2019-03-09T05:26:30.099Z,93.42
2019-03-09T05:28:58.713Z,93.22
2019-03-09T05:31:26.356Z,93.44
2019-03-09T05:33:55.673Z,93.45
2019-03-09T05:36:23.309Z,93.01
2019-03-09T05:38:52.643Z,92.68
2019-03-09T05:41:20.350Z,92.74
2019-03-09T05:43:47.979Z,93.43
2019-03-09T05:46:15.597Z,93.22
2019-03-09T05:48:44.794Z,93.24
2019-03-09T05:51:12.425Z,93.98
2019-03-09T05:53:40.133Z,93.84
2019-03-09T05:56:07.974Z,93.36
2019-03-09T05:58:35.629Z,93.79
2019-03-09T06:01:03.411Z,93.04
2019-03-09T06:03:31.100Z,92.91
2019-03-09T06:06:15.712Z,92.88
2019-03-09T06:08:43.653Z,92.79
2019-03-09T06:11:11.398Z,92.91
2019-03-09T06:13:39.060Z,92.80
2019-03-09T06:16:07.826Z,92.88
2019-03-09T06:18:35.565Z,93.12
2019-03-09T06:21:03.294Z,92.97
2019-03-09T06:23:31.105Z,92.96
2019-03-09T06:25:58.812Z,92.83
2019-03-09T06:28:26.537Z,93.19
2019-03-09T06:30:54.187Z,93.36
2019-03-09T06:33:29.642Z,93.28
2019-03-09T06:36:04.596Z,93.68
2019-03-09T06:38:36.712Z,93.83
2019-03-09T06:41:06.753Z,93.74
2019-03-09T06:43:34.351Z,93.82
2019-03-09T06:46:02.014Z,93.32
2019-03-09T06:48:29.618Z,93.27
2019-03-09T06:50:57.744Z,92.86
2019-03-09T06:53:25.396Z,92.33
2019-03-09T06:55:52.985Z,92.09
2019-03-09T06:58:20.720Z,91.11
2019-03-09T07:00:48.399Z,90.67
2019-03-09T07:03:16.044Z,90.48
2019-03-09T07:05:43.763Z,89.49
2019-03-09T07:08:11.457Z,88.88
2019-03-09T07:10:39.218Z,88.95
2019-03-09T07:13:06.869Z,88.44
2019-03-09T07:15:39.437Z,88.76
2019-03-09T07:18:12.184Z,88.46
2019-03-09T07:20:39.881Z,88.04
2019-03-09T07:23:07.629Z,87.55
2019-03-09T07:25:35.313Z,87.05
2019-03-09T07:28:07.853Z,87.88
2019-03-09T07:30:35.526Z,87.80
2019-03-09T07:33:04.749Z,87.65
2019-03-09T07:35:32.471Z,87.54
2019-03-09T07:38:00.110Z,87.35
2019-03-09T07:40:27.724Z,87.08
2019-03-09T07:42:55.363Z,86.42
2019-03-09T07:45:22.877Z,85.40
2019-03-09T07:47:50.443Z,84.61
2019-03-09T07:50:18.068Z,84.95
2019-03-09T07:52:45.813Z,85.49
2019-03-09T07:55:13.724Z,82.86
2019-03-09T07:57:41.354Z,82.40
2019-03-09T08:00:11.493Z,83.38
2019-03-09T08:02:39.195Z,83.45
2019-03-09T08:05:06.827Z,84.26
2019-03-09T08:07:34.444Z,83.06
2019-03-09T08:10:02.048Z,82.13
2019-03-09T08:12:29.779Z,81.37
2019-03-09T08:14:57.416Z,80.92
2019-03-09T08:17:25.040Z,79.32
2019-03-09T08:19:53.748Z,79.97
2019-03-09T08:22:21.403Z,79.20
2019-03-09T08:24:50.084Z,78.79
2019-03-09T08:27:17.636Z,79.94
2019-03-09T08:29:45.269Z,80.13
2019-03-09T08:32:12.939Z,79.75
2019-03-09T08:34:40.632Z,79.79
2019-03-09T08:37:08.217Z,79.51
2019-03-09T08:39:35.863Z,77.87
2019-03-09T08:42:05.277Z,78.00
2019-03-09T08:44:32.838Z,78.80
2019-03-09T08:47:00.487Z,76.70
2019-03-09T08:49:28.229Z,75.01
2019-03-09T08:51:55.878Z,73.54
2019-03-09T08:54:23.448Z,72.61
2019-03-09T08:56:51.220Z,72.58
2019-03-09T08:59:18.793Z,69.31
2019-03-09T09:01:46.492Z,69.49
2019-03-09T09:04:14.030Z,70.08
2019-03-09T09:06:41.789Z,69.78
2019-03-09T09:09:09.356Z,69.16
2019-03-09T09:11:37.228Z,68.67
2019-03-09T09:14:04.817Z,67.66
2019-03-09T09:16:32.488Z,66.86
2019-03-09T09:19:00.072Z,67.54
2019-03-09T09:21:27.754Z,67.43
2019-03-09T09:23:56.553Z,66.82
2019-03-09T09:26:24.169Z,66.56
2019-03-09T09:28:51.799Z,67.19
2019-03-09T09:31:19.368Z,67.41
2019-03-09T09:33:46.962Z,66.70
2019-03-09T09:36:14.516Z,66.50
2019-03-09T09:38:42.203Z,66.95
2019-03-09T09:41:09.743Z,66.39
2019-03-09T09:43:37.419Z,66.56
2019-03-09T09:46:04.932Z,66.36
2019-03-09T09:48:34.388Z,66.96
2019-03-09T09:51:02.056Z,66.76
2019-03-09T09:53:30.007Z,66.97
2019-03-09T09:55:57.674Z,67.01
2019-03-09T09:58:25.393Z,67.61
2019-03-09T10:00:53.062Z,65.58
2019-03-09T10:03:20.714Z,67.68
2019-03-09T10:05:48.420Z,67.00
2019-03-09T10:08:16.147Z,67.09
2019-03-09T10:10:43.794Z,67.58
2019-03-09T10:13:11.508Z,66.38
2019-03-09T10:15:39.574Z,66.99
2019-03-09T10:18:07.512Z,66.38
2019-03-09T10:20:35.191Z,66.75
2019-03-09T10:23:04.800Z,66.17
2019-03-09T10:25:32.567Z,66.21
2019-03-09T10:28:00.297Z,65.53
2019-03-09T10:30:27.998Z,65.43
2019-03-09T10:32:57.149Z,64.29
2019-03-09T10:35:24.814Z,63.98
2019-03-09T10:37:52.474Z,63.22
2019-03-09T10:40:20.158Z,63.08
2019-03-09T10:42:47.819Z,62.80
2019-03-09T10:45:15.643Z,62.53
2019-03-09T10:47:43.381Z,60.85
2019-03-09T10:50:11.727Z,59.83
2019-03-09T10:52:40.467Z,61.06
2019-03-09T10:55:10.176Z,59.39
2019-03-09T10:57:38.881Z,59.87
2019-03-09T11:00:13.349Z,59.70
2019-03-09T11:02:41.083Z,59.18
2019-03-09T11:05:09.603Z,58.80
2019-03-09T11:07:37.339Z,57.87
2019-03-09T11:10:05.390Z,58.82
2019-03-09T11:12:32.988Z,59.49
2019-03-09T11:15:00.684Z,59.03
2019-03-09T11:17:28.341Z,59.76
2019-03-09T11:19:56.064Z,57.63
2019-03-09T11:22:23.758Z,58.79
2019-03-09T11:24:51.378Z,58.39
2019-03-09T11:27:19.035Z,57.95
2019-03-09T11:29:46.676Z,57.29
2019-03-09T11:32:14.406Z,56.07
2019-03-09T11:34:42.090Z,55.99
2019-03-09T11:37:09.677Z,57.90
2019-03-09T11:39:39.051Z,56.72
2019-03-09T11:42:06.575Z,57.83
2019-03-09T11:44:34.227Z,58.93
2019-03-09T11:47:01.791Z,58.15
2019-03-09T11:49:29.426Z,57.77
2019-03-09T11:51:57.020Z,57.69
2019-03-09T11:54:24.614Z,57.37
2019-03-09T11:56:52.177Z,56.68
2019-03-09T11:59:19.792Z,54.21
2019-03-09T12:01:47.381Z,55.16
2019-03-09T12:04:15.379Z,54.53
2019-03-09T12:06:42.965Z,53.63
2019-03-09T12:09:10.599Z,53.55
2019-03-09T12:11:38.288Z,52.29
2019-03-09T12:14:05.917Z,51.64
2019-03-09T12:16:33.500Z,52.48
2019-03-09T12:19:01.222Z,50.64
2019-03-09T12:21:28.772Z,49.38
2019-03-09T12:23:56.405Z,50.39
2019-03-09T12:26:24.940Z,49.05
2019-03-09T12:28:52.640Z,50.24
2019-03-09T12:31:20.159Z,49.78
2019-03-09T12:33:47.803Z,49.05
2019-03-09T12:36:15.378Z,48.87
2019-03-09T12:38:43.048Z,48.34
2019-03-09T12:41:10.608Z,47.76
2019-03-09T12:43:38.177Z,47.53
2019-03-09T12:46:05.735Z,48.73
2019-03-09T12:48:33.267Z,48.64
2019-03-09T12:51:00.791Z,49.56
2019-03-09T12:53:28.467Z,49.46
2019-03-09T12:55:56.036Z,49.08
2019-03-09T12:58:23.697Z,48.59
2019-03-09T13:00:51.322Z,48.17
2019-03-09T13:03:19.100Z,47.53
2019-03-09T13:05:46.970Z,47.04
2019-03-09T13:08:14.672Z,45.48
2019-03-09T13:10:42.290Z,46.36
2019-03-09T13:13:09.858Z,46.18
2019-03-09T13:15:37.599Z,46.65
2019-03-09T13:18:05.128Z,46.98
2019-03-09T13:20:32.802Z,47.34
2019-03-09T13:23:00.386Z,46.71
2019-03-09T13:25:28.137Z,46.75
2019-03-09T13:27:55.671Z,45.81
2019-03-09T13:30:23.420Z,47.10
2019-03-09T13:32:51.052Z,47.47
2019-03-09T13:35:18.717Z,46.00
2019-03-09T13:37:46.255Z,45.69
2019-03-09T13:40:14.274Z,45.82
2019-03-09T13:42:41.833Z,47.41
2019-03-09T13:45:10.243Z,45.02
2019-03-09T13:47:37.765Z,45.57
2019-03-09T13:50:06.216Z,43.79
2019-03-09T13:52:33.770Z,44.60
2019-03-09T13:55:01.346Z,45.45
2019-03-09T13:57:28.957Z,45.30
2019-03-09T13:59:56.543Z,46.08
2019-03-09T14:02:24.131Z,46.24
2019-03-09T14:04:51.699Z,44.96
2019-03-09T14:07:19.281Z,46.14
2019-03-09T14:09:46.880Z,45.42
2019-03-09T14:12:14.417Z,44.41
2019-03-09T14:14:41.998Z,44.30
2019-03-09T14:17:09.606Z,44.23
2019-03-09T14:19:37.154Z,44.96
2019-03-09T14:22:04.772Z,45.06
2019-03-09T14:24:32.319Z,45.10
2019-03-09T14:26:59.968Z,45.62
2019-03-09T14:29:27.542Z,45.94
2019-03-09T14:31:55.141Z,45.97
2019-03-09T14:34:22.718Z,45.94
2019-03-09T14:36:50.342Z,45.83
2019-03-09T14:39:17.867Z,45.55
2019-03-09T14:41:45.494Z,45.95
2019-03-09T14:44:13.039Z,45.87
2019-03-09T14:46:40.628Z,46.57
2019-03-09T14:49:08.241Z,46.51
2019-03-09T14:51:35.832Z,46.16
2019-03-09T14:54:03.446Z,46.65
2019-03-09T14:56:31.043Z,49.59
2019-03-09T14:58:58.688Z,47.96
2019-03-09T15:01:26.345Z,47.75
2019-03-09T15:03:53.948Z,47.41
2019-03-09T15:06:22.166Z,48.69
2019-03-09T15:08:49.839Z,49.24
2019-03-09T15:11:17.437Z,48.85
2019-03-09T15:13:44.994Z,50.38
2019-03-09T15:16:12.639Z,49.30
2019-03-09T15:18:40.267Z,48.98
2019-03-09T15:21:07.878Z,49.05
2019-03-09T15:23:35.398Z,49.22
2019-03-09T15:26:03.042Z,48.83
2019-03-09T15:28:30.561Z,49.51
2019-03-09T15:30:58.188Z,49.18
2019-03-09T15:33:25.695Z,49.22
2019-03-09T15:35:53.321Z,49.63
2019-03-09T15:38:20.884Z,49.28
2019-03-09T15:40:48.635Z,49.45
2019-03-09T15:43:16.193Z,49.94
2019-03-09T15:45:43.831Z,48.95
2019-03-09T15:48:11.342Z,49.81
2019-03-09T15:50:39.000Z,49.51
2019-03-09T15:53:06.595Z,49.71
2019-03-09T15:55:34.209Z,49.54
2019-03-09T15:58:02.961Z,50.05
2019-03-09T16:00:30.549Z,49.84
2019-03-09T16:02:58.137Z,49.56
2019-03-09T16:05:25.747Z,49.76
2019-03-09T16:07:53.280Z,49.54
2019-03-09T16:10:20.909Z,50.30
2019-03-09T16:12:48.461Z,50.49
2019-03-09T16:15:16.155Z,50.30
2019-03-09T16:17:43.730Z,50.52
2019-03-09T16:20:13.245Z,50.96
2019-03-09T16:22:40.976Z,50.67
2019-03-09T16:25:08.590Z,51.49
2019-03-09T16:27:36.165Z,52.16
2019-03-09T16:30:05.067Z,52.60
2019-03-09T16:32:32.771Z,52.93
2019-03-09T16:35:00.464Z,53.96
2019-03-09T16:37:28.130Z,54.59
2019-03-09T16:39:55.831Z,55.26
2019-03-09T16:42:23.505Z,56.47
2019-03-09T16:44:51.127Z,56.85
2019-03-09T16:47:18.720Z,57.70
2019-03-09T16:49:46.357Z,58.06
2019-03-09T16:52:13.921Z,58.65
2019-03-09T16:54:41.576Z,59.22
2019-03-09T16:57:09.210Z,59.18
2019-03-09T16:59:36.813Z,59.92
2019-03-09T17:02:04.389Z,60.47
2019-03-09T17:04:31.966Z,60.46
2019-03-09T17:06:59.578Z,60.23
2019-03-09T17:09:27.207Z,60.75
2019-03-09T17:11:54.759Z,61.50
2019-03-09T17:14:22.531Z,62.21
2019-03-09T17:16:50.101Z,62.66
2019-03-09T17:19:19.365Z,62.87
2019-03-09T17:21:46.890Z,63.35
2019-03-09T17:24:14.472Z,64.33
2019-03-09T17:26:42.069Z,64.89
2019-03-09T17:29:09.665Z,64.05
2019-03-09T17:31:37.241Z,64.60
2019-03-09T17:34:04.873Z,64.70
2019-03-09T17:36:32.449Z,64.99
2019-03-09T17:39:00.056Z,64.79
2019-03-09T17:41:27.666Z,64.72
2019-03-09T17:43:57.001Z,65.82
2019-03-09T17:46:24.552Z,66.34
2019-03-09T17:48:52.172Z,66.50
2019-03-09T17:51:19.687Z,66.33
2019-03-09T17:53:47.340Z,66.59
2019-03-09T17:56:14.910Z,66.68
2019-03-09T17:58:42.497Z,66.99
2019-03-09T18:01:10.060Z,67.15
2019-03-09T18:03:37.679Z,66.62
2019-03-09T18:06:05.283Z,67.18
2019-03-09T18:08:32.910Z,67.58
2019-03-09T18:11:02.890Z,67.96
2019-03-09T18:13:31.575Z,67.80
2019-03-09T18:15:59.279Z,67.93
2019-03-09T18:18:26.846Z,67.59
2019-03-09T18:20:54.518Z,68.18
2019-03-09T18:23:22.163Z,67.96
2019-03-09T18:25:49.790Z,68.18
2019-03-09T18:28:17.433Z,68.27
2019-03-09T18:30:45.161Z,68.36
2019-03-09T18:33:12.803Z,68.59
2019-03-09T18:35:41.840Z,69.29
2019-03-09T18:38:09.672Z,69.89
2019-03-09T18:40:38.285Z,70.14
2019-03-09T18:43:05.828Z,69.67
2019-03-09T18:45:33.484Z,70.36
2019-03-09T18:48:01.108Z,70.51
2019-03-09T18:50:28.770Z,71.04
2019-03-09T18:52:56.361Z,70.99
2019-03-09T18:55:23.990Z,70.42
2019-03-09T18:57:51.550Z,70.62
2019-03-09T19:00:19.327Z,71.16
2019-03-09T19:02:46.897Z,71.46
2019-03-09T19:05:14.605Z,70.89
2019-03-09T19:07:42.134Z,71.06
2019-03-09T19:10:10.694Z,71.53
2019-03-09T19:12:38.236Z,71.55
2019-03-09T19:15:07.462Z,72.60
2019-03-09T19:17:35.093Z,72.18
2019-03-09T19:20:02.786Z,72.55
2019-03-09T19:22:30.456Z,72.75
2019-03-09T19:24:58.137Z,72.71
2019-03-09T19:27:25.787Z,72.89
2019-03-09T19:29:53.597Z,72.62
2019-03-09T19:32:21.191Z,73.60
2019-03-09T19:34:48.772Z,73.32
2019-03-09T19:37:16.421Z,71.54
2019-03-09T19:39:44.177Z,72.36
2019-03-09T19:42:12.914Z,72.51
2019-03-09T19:44:40.484Z,71.80
2019-03-09T19:47:08.145Z,71.61
2019-03-09T19:49:35.708Z,71.51
2019-03-09T19:52:03.336Z,71.34
2019-03-09T19:54:30.898Z,71.01
2019-03-09T19:56:58.671Z,71.14
2019-03-09T19:59:26.347Z,71.28
2019-03-09T20:01:53.999Z,71.20
2019-03-09T20:04:21.670Z,71.05
2019-03-09T20:06:49.416Z,71.05
2019-03-09T20:09:17.512Z,71.26
2019-03-09T20:11:45.182Z,71.04
2019-03-09T20:14:12.938Z,71.29
2019-03-09T20:16:40.711Z,70.51
2019-03-09T20:19:08.430Z,70.76
2019-03-09T20:21:36.165Z,70.27
2019-03-09T20:24:03.776Z,69.82
2019-03-09T20:26:31.493Z,69.53
2019-03-09T20:28:59.105Z,69.60
2019-03-09T20:31:27.274Z,68.79
2019-03-09T20:33:54.953Z,68.96
2019-03-09T20:36:22.673Z,69.12
2019-03-09T20:38:50.404Z,69.32
2019-03-09T20:41:18.060Z,69.05
2019-03-09T20:43:45.718Z,68.37
2019-03-09T20:46:13.700Z,68.39
2019-03-09T20:48:41.401Z,68.32
2019-03-09T20:51:10.480Z,68.41
2019-03-09T20:53:38.225Z,68.87
2019-03-09T20:56:05.969Z,69.01
2019-03-09T20:58:33.629Z,69.00
2019-03-09T21:01:01.419Z,69.74
2019-03-09T21:03:30.086Z,69.24
2019-03-09T21:05:57.769Z,69.53
2019-03-09T21:08:25.999Z,70.12
2019-03-09T21:11:03.311Z,70.02
2019-03-09T21:13:23.266Z,70.40
2019-03-09T21:15:50.876Z,70.54
2019-03-09T21:18:18.619Z,70.88
2019-03-09T21:20:46.553Z,70.91
2019-03-09T21:23:14.095Z,71.62
2019-03-09T21:25:41.793Z,71.56
2019-03-09T21:28:09.314Z,71.86
2019-03-09T21:30:36.945Z,72.04
2019-03-09T21:33:04.490Z,72.61
2019-03-09T21:35:32.104Z,72.97
2019-03-09T21:37:59.779Z,73.43
2019-03-09T21:40:27.791Z,73.39
2019-03-09T21:42:55.502Z,73.61
2019-03-09T21:45:23.115Z,73.61
2019-03-09T21:47:50.811Z,74.28
2019-03-09T21:50:18.361Z,74.92
2019-03-09T21:52:46.041Z,75.42
2019-03-09T21:55:13.598Z,75.38
2019-03-09T21:57:41.236Z,75.55
2019-03-09T22:00:09.691Z,75.86
2019-03-09T22:02:37.713Z,76.54
2019-03-09T22:05:06.984Z,76.23
2019-03-09T22:07:34.656Z,76.59
2019-03-09T22:10:02.179Z,77.07
2019-03-09T22:12:29.927Z,77.32
2019-03-09T22:14:57.564Z,77.67
2019-03-09T22:17:25.251Z,77.87
2019-03-09T22:19:52.984Z,77.57
2019-03-09T22:22:20.672Z,77.45
2019-03-09T22:24:48.427Z,77.73
2019-03-09T22:27:16.099Z,77.87
2019-03-09T22:29:43.829Z,78.44
2019-03-09T22:32:11.403Z,79.17
2019-03-09T22:34:39.034Z,79.36
2019-03-09T22:37:06.555Z,78.94
2019-03-09T22:39:34.302Z,78.98
2019-03-09T22:42:01.879Z,79.04
2019-03-09T22:44:29.608Z,79.18
2019-03-09T22:46:57.134Z,79.02
2019-03-09T22:49:24.920Z,79.43
2019-03-09T22:51:52.452Z,79.85
2019-03-09T22:54:20.147Z,79.68
2019-03-09T22:56:47.743Z,79.41
2019-03-09T22:59:15.429Z,79.81
2019-03-09T23:01:42.992Z,80.21
2019-03-09T23:04:10.561Z,80.94
2019-03-09T23:06:38.114Z,81.13
2019-03-09T23:09:05.826Z,81.52
2019-03-09T23:11:35.231Z,82.25
2019-03-09T23:14:02.804Z,81.94
2019-03-09T23:16:30.388Z,81.97
2019-03-09T23:18:58.161Z,82.76
2019-03-09T23:21:25.850Z,82.87
2019-03-09T23:23:53.412Z,82.23
2019-03-09T23:26:21.025Z,82.47
2019-03-09T23:28:49.010Z,81.83
2019-03-09T23:31:16.736Z,81.95
2019-03-09T23:33:44.267Z,81.94
2019-03-09T23:36:11.949Z,82.11
2019-03-09T23:38:40.688Z,81.79
2019-03-09T23:41:08.317Z,82.10
2019-03-09T23:43:35.945Z,81.82
2019-03-09T23:46:03.489Z,81.99
2019-03-09T23:48:31.106Z,82.15
2019-03-09T23:50:58.770Z,82.24
2019-03-09T23:53:26.410Z,83.30
2019-03-09T23:55:54.026Z,83.57
2019-03-09T23:58:21.631Z,83.78
